createdAt,value
2022-08-04T00:02:02.022Z,39.04
2022-08-04T00:04:52.303Z,39.02
2022-08-04T00:07:44.077Z,39.15
2022-08-04T00:10:17.206Z,39.18
2022-08-04T00:12:51.505Z,39.04
2022-08-04T00:15:20.555Z,39.49
2022-08-04T00:17:59.610Z,39.16
2022-08-04T00:20:32.687Z,39.28
2022-08-04T00:23:02.245Z,39.38
2022-08-04T00:25:30.270Z,39.41
2022-08-04T00:28:00.703Z,39.43
2022-08-04T00:30:28.580Z,39.60
2022-08-04T00:32:58.692Z,39.43
2022-08-04T00:35:29.118Z,39.67
2022-08-04T00:37:58.219Z,39.64
2022-08-04T00:41:17.863Z,39.59
2022-08-04T00:44:06.792Z,39.70
2022-08-04T00:47:34.439Z,39.63
2022-08-04T00:50:43.670Z,39.77
2022-08-04T00:53:40.569Z,39.95
2022-08-04T00:56:42.229Z,40.20
2022-08-04T01:00:14.494Z,40.01
2022-08-04T01:03:12.463Z,40.03
2022-08-04T01:06:04.286Z,39.99
2022-08-04T01:09:08.709Z,39.79
2022-08-04T01:12:10.842Z,39.46
2022-08-04T01:14:52.152Z,39.44
2022-08-04T01:17:24.190Z,39.26
2022-08-04T01:20:07.748Z,39.02
2022-08-04T01:23:46.145Z,38.85
2022-08-04T01:26:57.682Z,39.02
2022-08-04T01:29:46.888Z,38.76
2022-08-04T01:32:36.468Z,38.93
2022-08-04T01:35:22.323Z,39.05
2022-08-04T01:38:28.391Z,39.30
2022-08-04T01:41:02.734Z,39.12
2022-08-04T01:43:41.142Z,38.93
2022-08-04T01:46:13.640Z,38.53
2022-08-04T01:48:46.580Z,38.35
2022-08-04T01:51:14.827Z,38.32
2022-08-04T01:53:44.638Z,38.26
2022-08-04T01:56:13.192Z,38.08
2022-08-04T01:58:41.738Z,38.05
2022-08-04T02:01:13.129Z,37.94
2022-08-04T02:04:21.448Z,38.46
2022-08-04T02:06:43.592Z,38.14
2022-08-04T02:09:54.436Z,38.59
2022-08-04T02:12:46.841Z,38.69
2022-08-04T02:15:35.324Z,38.71
2022-08-04T02:18:04.552Z,39.07
2022-08-04T02:20:43.120Z,38.80
2022-08-04T02:23:40.903Z,38.99
2022-08-04T02:26:22.888Z,38.96
2022-08-04T02:29:13.604Z,39.20
2022-08-04T02:32:03.699Z,39.43
2022-08-04T02:35:03.403Z,39.36
2022-08-04T02:37:33.328Z,39.65
2022-08-04T02:40:06.099Z,39.84
2022-08-04T02:42:35.378Z,39.62
2022-08-04T02:45:04.856Z,39.72
2022-08-04T02:48:29.478Z,39.66
2022-08-04T02:50:28.716Z,39.63
2022-08-04T02:53:00.011Z,39.47
2022-08-04T02:55:30.216Z,39.58
2022-08-04T02:58:01.923Z,39.74
2022-08-04T03:00:30.245Z,39.83
2022-08-04T03:03:38.021Z,39.69
2022-08-04T03:06:11.463Z,39.93
2022-08-04T03:09:06.971Z,39.84
2022-08-04T03:12:33.438Z,39.94
2022-08-04T03:15:25.855Z,40.47
2022-08-04T03:18:07.516Z,40.54
2022-08-04T03:20:56.306Z,40.27
2022-08-04T03:23:47.714Z,40.24
2022-08-04T03:26:56.086Z,40.47
2022-08-04T03:29:56.276Z,40.57
2022-08-04T03:33:15.515Z,40.37
2022-08-04T03:36:26.102Z,40.73
2022-08-04T03:39:06.413Z,40.94
2022-08-04T03:42:16.061Z,40.67
2022-08-04T03:44:58.731Z,40.92
2022-08-04T03:48:07.980Z,40.78
2022-08-04T03:51:37.102Z,40.73
2022-08-04T03:54:28.974Z,40.73
2022-08-04T03:57:20.631Z,40.84
2022-08-04T04:00:13.003Z,40.89
2022-08-04T04:02:46.434Z,41.17
2022-08-04T04:05:58.696Z,41.16
2022-08-04T04:08:52.376Z,41.39
2022-08-04T04:11:56.711Z,41.40
2022-08-04T04:15:06.126Z,41.56
2022-08-04T04:17:51.360Z,41.93
2022-08-04T04:20:46.654Z,41.87
2022-08-04T04:24:05.634Z,41.93
2022-08-04T04:26:39.151Z,41.96
2022-08-04T04:29:22.676Z,42.11
2022-08-04T04:32:24.411Z,41.96
2022-08-04T04:35:11.165Z,42.04
2022-08-04T04:38:02.971Z,41.79
2022-08-04T04:41:06.452Z,42.16
2022-08-04T04:44:09.851Z,42.05
2022-08-04T04:47:07.660Z,41.99
2022-08-04T04:49:59.434Z,42.03
2022-08-04T04:52:47.687Z,42.13
2022-08-04T04:55:35.124Z,42.13
2022-08-04T04:58:04.064Z,42.29
2022-08-04T05:01:13.575Z,42.27
2022-08-04T05:04:19.992Z,42.42
2022-08-04T05:07:21.150Z,42.25
2022-08-04T05:10:20.743Z,42.33
2022-08-04T05:14:35.371Z,42.53
2022-08-04T05:16:44.063Z,42.27
2022-08-04T05:19:20.822Z,42.50
2022-08-04T05:22:00.180Z,42.56
2022-08-04T05:24:35.126Z,42.65
2022-08-04T05:27:39.835Z,42.61
2022-08-04T05:30:10.185Z,42.70
2022-08-04T05:32:55.981Z,42.60
2022-08-04T05:36:18.702Z,42.82
2022-08-04T05:38:42.386Z,42.61
2022-08-04T05:41:11.526Z,42.74
2022-08-04T05:43:42.888Z,42.59
2022-08-04T05:46:11.950Z,42.67
2022-08-04T05:48:40.567Z,42.35
2022-08-04T05:51:11.348Z,42.29
2022-08-04T05:53:44.150Z,42.47
2022-08-04T05:56:16.476Z,42.28
2022-08-04T05:58:46.435Z,42.03
2022-08-04T06:01:16.824Z,41.81
2022-08-04T06:03:47.298Z,41.80
2022-08-04T06:06:17.468Z,41.50
2022-08-04T06:08:45.154Z,41.46
2022-08-04T06:11:14.670Z,41.17
2022-08-04T06:13:56.009Z,41.11
2022-08-04T06:16:30.847Z,41.07
2022-08-04T06:20:03.596Z,40.82
2022-08-04T06:22:00.752Z,41.00
2022-08-04T06:24:30.873Z,40.63
2022-08-04T06:26:59.157Z,40.85
2022-08-04T06:29:40.681Z,40.54
2022-08-04T06:32:40.027Z,40.70
2022-08-04T06:35:10.896Z,40.71
2022-08-04T06:37:42.266Z,40.31
2022-08-04T06:40:30.961Z,40.19
2022-08-04T06:43:07.633Z,40.35
2022-08-04T06:45:39.810Z,40.03
2022-08-04T06:48:09.085Z,39.80
2022-08-04T06:51:27.185Z,39.42
2022-08-04T06:53:27.655Z,39.34
2022-08-04T06:55:58.032Z,38.92
2022-08-04T06:58:27.829Z,38.75
2022-08-04T07:01:01.724Z,38.78
2022-08-04T07:03:30.897Z,38.22
2022-08-04T07:05:59.768Z,38.47
2022-08-04T07:08:36.172Z,38.24
2022-08-04T07:11:05.565Z,37.99
2022-08-04T07:13:33.776Z,37.67
2022-08-04T07:16:02.483Z,37.38
2022-08-04T07:18:32.058Z,37.13
2022-08-04T07:21:00.225Z,36.83
2022-08-04T07:23:28.309Z,36.61
2022-08-04T07:26:12.329Z,36.41
2022-08-04T07:28:41.756Z,36.34
2022-08-04T07:31:33.736Z,35.98
2022-08-04T07:34:21.223Z,35.97
2022-08-04T07:36:55.683Z,35.67
2022-08-04T07:39:29.607Z,35.32
2022-08-04T07:42:02.179Z,35.33
2022-08-04T07:44:35.202Z,35.08
2022-08-04T07:47:06.286Z,34.90
2022-08-04T07:49:52.160Z,35.53
2022-08-04T07:52:23.624Z,34.95
2022-08-04T07:54:52.739Z,34.11
2022-08-04T07:57:41.175Z,33.65
2022-08-04T08:00:11.915Z,33.75
2022-08-04T08:02:40.012Z,34.79
2022-08-04T08:05:10.821Z,33.67
2022-08-04T08:07:50.669Z,33.33
2022-08-04T08:10:23.207Z,33.16
2022-08-04T08:12:52.727Z,33.16
2022-08-04T08:15:21.400Z,32.51
2022-08-04T08:17:58.731Z,32.73
2022-08-04T08:20:32.479Z,32.46
2022-08-04T08:23:02.837Z,32.29
2022-08-04T08:25:32.912Z,32.29
2022-08-04T08:28:04.752Z,32.06
2022-08-04T08:30:36.249Z,31.65
2022-08-04T08:33:08.024Z,32.02
2022-08-04T08:35:54.620Z,31.78
2022-08-04T08:38:55.476Z,31.80
2022-08-04T08:41:59.824Z,31.61
2022-08-04T08:44:54.845Z,31.21
2022-08-04T08:48:11.459Z,31.30
2022-08-04T08:50:59.288Z,31.04
2022-08-04T08:53:48.591Z,30.84
2022-08-04T08:56:46.529Z,30.23
2022-08-04T08:59:53.978Z,30.09
2022-08-04T09:03:09.907Z,30.05
2022-08-04T09:06:05.517Z,30.36
2022-08-04T09:09:09.773Z,29.74
2022-08-04T09:12:25.785Z,29.78
2022-08-04T09:15:16.986Z,29.86
2022-08-04T09:17:54.217Z,30.88
2022-08-04T09:21:00.164Z,29.80
2022-08-04T09:24:35.616Z,30.15
2022-08-04T09:27:28.757Z,29.46
2022-08-04T09:30:06.720Z,29.16
2022-08-04T09:33:06.799Z,28.72
2022-08-04T09:35:59.818Z,29.26
2022-08-04T09:38:51.758Z,28.76
2022-08-04T09:41:56.840Z,28.66
2022-08-04T09:45:06.363Z,28.75
2022-08-04T09:47:58.843Z,28.43
2022-08-04T09:50:41.363Z,28.23
2022-08-04T09:53:33.746Z,27.80
2022-08-04T09:56:10.656Z,27.93
2022-08-04T09:59:10.411Z,28.07
2022-08-04T10:01:39.662Z,27.50
2022-08-04T10:04:14.885Z,27.60
2022-08-04T10:07:13.734Z,27.34
2022-08-04T10:10:17.406Z,27.57
2022-08-04T10:13:09.872Z,27.18
2022-08-04T10:16:07.291Z,27.28
2022-08-04T10:18:58.666Z,27.15
2022-08-04T10:22:29.046Z,27.14
2022-08-04T10:25:40.439Z,27.19
2022-08-04T10:28:20.030Z,27.22
2022-08-04T10:30:59.187Z,26.62
2022-08-04T10:33:52.126Z,26.30
2022-08-04T10:36:28.434Z,26.38
2022-08-04T10:39:43.644Z,26.03
2022-08-04T10:42:25.314Z,26.23
2022-08-04T10:45:08.375Z,26.09
2022-08-04T10:47:53.527Z,26.10
2022-08-04T10:50:26.443Z,26.08
2022-08-04T10:53:09.832Z,25.59
2022-08-04T10:56:06.608Z,25.55
2022-08-04T10:58:50.854Z,25.70
2022-08-04T11:02:00.928Z,25.49
2022-08-04T11:05:10.831Z,25.87
2022-08-04T11:07:43.872Z,25.43
2022-08-04T11:10:15.013Z,25.37
2022-08-04T11:12:44.698Z,25.05
2022-08-04T11:15:22.364Z,25.15
2022-08-04T11:18:17.315Z,24.91
2022-08-04T11:20:57.040Z,24.75
2022-08-04T11:23:33.477Z,24.80
2022-08-04T11:26:24.383Z,24.36
2022-08-04T11:29:22.168Z,24.16
2022-08-04T11:31:52.024Z,24.38
2022-08-04T11:34:26.051Z,24.25
2022-08-04T11:37:22.004Z,24.43
2022-08-04T11:39:59.087Z,23.91
2022-08-04T11:42:37.431Z,23.84
2022-08-04T11:45:15.539Z,23.64
2022-08-04T11:48:00.654Z,23.85
2022-08-04T11:50:58.284Z,23.79
2022-08-04T11:53:36.235Z,23.84
2022-08-04T11:56:11.358Z,23.65
2022-08-04T11:58:40.685Z,23.13
2022-08-04T12:01:29.097Z,22.54
2022-08-04T12:04:28.847Z,22.80
2022-08-04T12:07:40.530Z,22.35
2022-08-04T12:10:41.110Z,21.89
2022-08-04T12:13:33.782Z,21.67
2022-08-04T12:16:54.276Z,21.18
2022-08-04T12:20:03.813Z,21.61
2022-08-04T12:22:41.575Z,22.57
2022-08-04T12:25:50.508Z,21.66
2022-08-04T12:28:59.658Z,20.78
2022-08-04T12:31:50.083Z,20.93
2022-08-04T12:34:43.191Z,21.04
2022-08-04T12:37:33.992Z,20.41
2022-08-04T12:40:28.503Z,20.69
2022-08-04T12:43:15.482Z,20.10
2022-08-04T12:45:58.429Z,19.93
2022-08-04T12:48:28.622Z,20.07
2022-08-04T12:50:59.201Z,20.12
2022-08-04T12:53:34.575Z,20.09
2022-08-04T12:56:28.725Z,20.27
2022-08-04T12:59:12.419Z,20.04
2022-08-04T13:02:07.276Z,20.13
2022-08-04T13:04:51.297Z,20.55
2022-08-04T13:07:25.631Z,20.25
2022-08-04T13:09:53.753Z,20.24
2022-08-04T13:12:32.387Z,20.28
2022-08-04T13:15:18.013Z,20.39
2022-08-04T13:18:15.298Z,20.42
2022-08-04T13:20:45.219Z,20.43
2022-08-04T13:23:21.490Z,20.50
2022-08-04T13:26:42.431Z,20.45
2022-08-04T13:28:47.038Z,20.18
2022-08-04T13:31:22.210Z,20.57
2022-08-04T13:33:54.457Z,19.81
2022-08-04T13:36:29.402Z,19.55
2022-08-04T13:39:02.476Z,19.16
2022-08-04T13:41:31.680Z,18.87
2022-08-04T13:44:17.311Z,19.12
2022-08-04T13:46:58.114Z,19.27
2022-08-04T13:49:42.370Z,19.05
2022-08-04T13:52:15.301Z,18.90
2022-08-04T13:54:47.183Z,19.08
2022-08-04T13:57:23.936Z,18.83
2022-08-04T14:00:02.217Z,18.83
2022-08-04T14:03:00.761Z,18.80
2022-08-04T14:05:35.344Z,19.07
2022-08-04T14:08:26.399Z,19.11
2022-08-04T14:10:58.256Z,18.81
2022-08-04T14:13:41.551Z,19.02
2022-08-04T14:16:21.485Z,18.72
2022-08-04T14:19:01.473Z,18.58
2022-08-04T14:21:37.292Z,18.04
2022-08-04T14:24:05.820Z,18.00
2022-08-04T14:26:35.822Z,17.78
2022-08-04T14:29:26.291Z,17.54
2022-08-04T14:32:10.784Z,17.55
2022-08-04T14:34:45.974Z,17.19
2022-08-04T14:37:20.890Z,17.22
2022-08-04T14:40:08.340Z,17.16
2022-08-04T14:42:55.312Z,17.17
2022-08-04T14:45:53.973Z,17.08
2022-08-04T14:48:23.855Z,17.09
2022-08-04T14:50:52.917Z,16.63
2022-08-04T14:53:26.604Z,16.97
2022-08-04T14:55:58.122Z,16.82
2022-08-04T14:58:39.278Z,16.51
2022-08-04T15:01:12.947Z,16.81
2022-08-04T15:03:49.957Z,16.94
2022-08-04T15:06:27.236Z,16.66
2022-08-04T15:09:00.981Z,16.40
2022-08-04T15:11:30.737Z,16.21
2022-08-04T15:13:59.822Z,16.37
2022-08-04T15:16:32.376Z,16.10
2022-08-04T15:19:02.276Z,15.77
2022-08-04T15:21:31.712Z,16.01
2022-08-04T15:24:01.348Z,15.55
2022-08-04T15:27:09.977Z,15.67
2022-08-04T15:30:00.500Z,15.05
2022-08-04T15:32:35.058Z,14.93
2022-08-04T15:35:23.264Z,15.03
2022-08-04T15:38:21.891Z,15.05
2022-08-04T15:41:23.577Z,14.46
2022-08-04T15:44:30.863Z,14.76
2022-08-04T15:47:04.893Z,14.21
2022-08-04T15:49:34.036Z,14.51
2022-08-04T15:52:12.486Z,14.39
2022-08-04T15:54:52.498Z,13.78
2022-08-04T15:58:12.782Z,14.03
2022-08-04T16:00:50.127Z,13.90
2022-08-04T16:03:58.133Z,13.45
2022-08-04T16:06:27.468Z,13.13
2022-08-04T16:09:03.823Z,13.31
2022-08-04T16:11:34.263Z,13.46
2022-08-04T16:14:02.404Z,13.35
2022-08-04T16:16:51.546Z,13.66
2022-08-04T16:19:49.223Z,13.72
2022-08-04T16:22:41.315Z,13.07
2022-08-04T16:25:11.173Z,13.10
2022-08-04T16:27:45.030Z,13.03
2022-08-04T16:30:15.342Z,12.76
2022-08-04T16:32:48.722Z,12.76
2022-08-04T16:35:28.945Z,12.30
2022-08-04T16:38:18.858Z,12.69
2022-08-04T16:40:56.779Z,12.88
2022-08-04T16:43:31.046Z,12.65
2022-08-04T16:46:01.308Z,12.62
2022-08-04T16:49:17.121Z,12.26
2022-08-04T16:51:45.335Z,12.46
2022-08-04T16:54:14.153Z,12.51
2022-08-04T16:56:43.211Z,12.19
2022-08-04T16:59:14.242Z,12.00
2022-08-04T17:01:49.462Z,12.17
2022-08-04T17:04:18.113Z,12.04
2022-08-04T17:06:47.902Z,12.16
2022-08-04T17:09:19.856Z,12.21
2022-08-04T17:11:48.880Z,12.13
2022-08-04T17:14:27.136Z,12.35
2022-08-04T17:17:02.449Z,12.95
2022-08-04T17:19:31.213Z,13.36
2022-08-04T17:22:10.139Z,13.41
2022-08-04T17:24:41.075Z,13.80
2022-08-04T17:28:06.129Z,14.06
2022-08-04T17:30:00.696Z,14.52
2022-08-04T17:32:30.344Z,15.04
2022-08-04T17:35:02.178Z,15.45
2022-08-04T17:37:40.816Z,15.86
2022-08-04T17:40:25.717Z,16.55
2022-08-04T17:44:01.221Z,16.40
2022-08-04T17:46:28.577Z,16.62
2022-08-04T17:49:16.759Z,17.01
2022-08-04T17:52:06.822Z,17.51
2022-08-04T17:54:41.068Z,17.61
2022-08-04T17:57:23.715Z,17.86
2022-08-04T18:00:01.860Z,18.53
2022-08-04T18:02:37.319Z,18.87
2022-08-04T18:05:12.299Z,19.05
2022-08-04T18:08:38.951Z,19.19
2022-08-04T18:10:56.830Z,19.16
2022-08-04T18:13:29.183Z,19.67
2022-08-04T18:16:05.377Z,19.81
2022-08-04T18:18:38.500Z,19.76
2022-08-04T18:21:07.007Z,20.17
2022-08-04T18:23:50.344Z,20.54
2022-08-04T18:26:23.701Z,20.85
2022-08-04T18:28:53.527Z,21.11
2022-08-04T18:31:21.918Z,21.36
2022-08-04T18:33:57.394Z,21.48
2022-08-04T18:36:35.480Z,21.81
2022-08-04T18:39:12.517Z,21.71
2022-08-04T18:42:01.933Z,21.65
2022-08-04T18:44:52.590Z,21.81
2022-08-04T18:47:29.755Z,21.73
2022-08-04T18:51:01.063Z,21.91
2022-08-04T18:52:47.771Z,21.97
2022-08-04T18:55:55.548Z,21.94
2022-08-04T18:58:13.632Z,22.01
2022-08-04T19:00:47.394Z,21.57
2022-08-04T19:03:22.850Z,21.58
2022-08-04T19:05:53.604Z,21.25
2022-08-04T19:08:32.810Z,21.28
2022-08-04T19:11:38.447Z,21.90
2022-08-04T19:13:58.229Z,22.66
2022-08-04T19:16:32.475Z,22.89
2022-08-04T19:19:05.561Z,22.85
2022-08-04T19:21:59.322Z,22.79
2022-08-04T19:24:32.746Z,23.07
2022-08-04T19:27:08.725Z,23.42
2022-08-04T19:29:41.058Z,23.80
2022-08-04T19:32:15.588Z,24.06
2022-08-04T19:34:47.411Z,24.18
2022-08-04T19:37:56.889Z,24.23
2022-08-04T19:40:09.770Z,24.20
2022-08-04T19:42:38.915Z,24.49
2022-08-04T19:45:15.826Z,24.66
2022-08-04T19:48:16.235Z,25.19
2022-08-04T19:50:34.008Z,25.49
2022-08-04T19:53:01.840Z,25.89
2022-08-04T19:55:39.258Z,25.84
2022-08-04T19:58:09.395Z,25.90
2022-08-04T20:00:40.052Z,26.31
2022-08-04T20:03:13.661Z,26.48
2022-08-04T20:05:50.113Z,26.79
2022-08-04T20:08:27.931Z,26.42
2022-08-04T20:10:58.126Z,26.58
2022-08-04T20:13:30.948Z,26.59
2022-08-04T20:16:29.451Z,26.87
2022-08-04T20:19:03.372Z,27.00
2022-08-04T20:21:53.469Z,26.78
2022-08-04T20:24:38.718Z,26.98
2022-08-04T20:27:21.585Z,26.87
2022-08-04T20:29:52.151Z,26.47
2022-08-04T20:32:26.846Z,26.08
2022-08-04T20:34:57.733Z,25.94
2022-08-04T20:37:56.853Z,26.25
2022-08-04T20:40:15.817Z,26.26
2022-08-04T20:42:46.514Z,26.98
2022-08-04T20:45:16.867Z,27.34
2022-08-04T20:47:54.022Z,27.19
2022-08-04T20:50:30.170Z,27.03
2022-08-04T20:52:59.075Z,27.48
2022-08-04T20:55:29.481Z,27.63
2022-08-04T20:58:02.579Z,27.75
2022-08-04T21:00:33.524Z,27.67
2022-08-04T21:03:02.915Z,27.78
2022-08-04T21:05:31.610Z,28.37
2022-08-04T21:08:00.171Z,28.38
2022-08-04T21:10:29.956Z,28.57
2022-08-04T21:12:58.866Z,28.84
2022-08-04T21:15:58.222Z,28.23
2022-08-04T21:18:16.972Z,27.96
2022-08-04T21:20:48.315Z,28.04
2022-08-04T21:23:16.577Z,28.20
2022-08-04T21:25:50.896Z,28.08
2022-08-04T21:28:20.310Z,28.37
2022-08-04T21:30:54.513Z,28.39
2022-08-04T21:33:48.178Z,28.92
2022-08-04T21:36:19.773Z,29.34
2022-08-04T21:38:51.479Z,29.48
2022-08-04T21:41:24.906Z,29.14
2022-08-04T21:43:55.977Z,29.21
2022-08-04T21:46:24.236Z,29.36
2022-08-04T21:48:52.399Z,29.40
2022-08-04T21:51:58.510Z,28.68
2022-08-04T21:54:17.051Z,28.95
2022-08-04T21:56:50.920Z,28.75
2022-08-04T21:59:23.701Z,28.74
2022-08-04T22:02:01.082Z,28.26
2022-08-04T22:04:29.669Z,28.26
2022-08-04T22:06:58.140Z,29.27
2022-08-04T22:09:37.708Z,29.53
2022-08-04T22:12:12.092Z,29.20
2022-08-04T22:14:41.670Z,28.95
2022-08-04T22:17:24.237Z,28.84
2022-08-04T22:19:56.351Z,28.95
2022-08-04T22:22:29.511Z,29.12
2022-08-04T22:25:06.260Z,29.19
2022-08-04T22:28:02.613Z,29.32
2022-08-04T22:30:37.592Z,29.25
2022-08-04T22:33:09.018Z,29.56
2022-08-04T22:35:44.196Z,29.55
2022-08-04T22:38:31.719Z,29.87
2022-08-04T22:41:09.388Z,29.70
2022-08-04T22:43:38.983Z,30.11
2022-08-04T22:46:22.333Z,29.93
2022-08-04T22:48:51.003Z,29.97
2022-08-04T22:51:21.437Z,30.73
2022-08-04T22:53:51.964Z,30.80
2022-08-04T22:56:37.185Z,30.77
2022-08-04T22:59:11.343Z,30.53
2022-08-04T23:01:58.076Z,30.45
2022-08-04T23:04:33.855Z,30.68
2022-08-04T23:07:09.047Z,30.43
2022-08-04T23:09:50.352Z,30.70
2022-08-04T23:12:26.209Z,31.68
2022-08-04T23:14:57.370Z,31.42
2022-08-04T23:17:28.040Z,31.40
2022-08-04T23:19:59.101Z,31.35
2022-08-04T23:22:41.880Z,30.98
2022-08-04T23:25:15.125Z,30.95
2022-08-04T23:27:48.137Z,30.73
2022-08-04T23:30:24.967Z,30.56
2022-08-04T23:32:58.710Z,30.86
2022-08-04T23:35:27.251Z,31.06
2022-08-04T23:37:59.767Z,31.16
2022-08-04T23:40:34.134Z,31.56
2022-08-04T23:43:17.285Z,31.65
2022-08-04T23:46:04.152Z,31.64
2022-08-04T23:48:39.069Z,31.53
2022-08-04T23:51:13.965Z,31.92
2022-08-04T23:54:02.556Z,31.69
2022-08-04T23:56:35.876Z,32.08
2022-08-04T23:59:06.227Z,32.37
